createdAt,value
2023-11-18T00:00:42.667Z,1032.3
2023-11-18T00:06:25.016Z,1032.1
2023-11-18T00:11:47.246Z,1032.2
2023-11-18T00:17:29.031Z,1032.2
2023-11-18T00:23:10.669Z,1032.2
2023-11-18T00:28:44.197Z,1032.3
2023-11-18T00:34:02.196Z,1032.3
2023-11-18T00:39:41.680Z,1032.5
2023-11-18T00:44:58.509Z,1032.4
2023-11-18T00:50:48.749Z,1032.5
2023-11-18T00:56:14.839Z,1032.5
2023-11-18T01:01:41.984Z,1032.6
2023-11-18T01:07:04.454Z,1032.5
2023-11-18T01:12:33.693Z,1032.6
2023-11-18T01:18:21.919Z,1032.6
2023-11-18T01:23:31.167Z,1032.8
2023-11-18T01:29:16.154Z,1032.6
2023-11-18T01:34:47.849Z,1032.6
2023-11-18T01:40:10.721Z,1032.7
2023-11-18T01:45:32.723Z,1032.6
2023-11-18T01:51:18.381Z,1032.6
2023-11-18T01:56:47.084Z,1032.7
2023-11-18T02:13:35.430Z,1032.6
2023-11-18T02:18:42.268Z,1032.6
2023-11-18T02:24:28.016Z,1032.5
2023-11-18T02:29:43.673Z,1032.4
2023-11-18T02:35:17.103Z,1032.6
2023-11-18T02:41:01.378Z,1032.6
2023-11-18T02:46:39.495Z,1032.5
2023-11-18T02:57:17.886Z,1032.6
2023-11-18T03:02:50.864Z,1032.6
2023-11-18T03:08:28.319Z,1032.6
2023-11-18T03:14:01.623Z,1032.6
2023-11-18T03:19:28.269Z,1032.6
2023-11-18T03:24:49.599Z,1032.7
2023-11-18T03:30:34.355Z,1032.5
2023-11-18T03:36:14.780Z,1032.5
2023-11-18T03:41:28.268Z,1032.5
2023-11-18T03:47:07.064Z,1032.5
2023-11-18T03:52:35.127Z,1032.4
2023-11-18T03:58:00.102Z,1032.4
2023-11-18T04:03:26.116Z,1032.3
2023-11-18T04:09:21.071Z,1032.3
2023-11-18T04:14:48.318Z,1032.3
2023-11-18T04:20:20.584Z,1032.4
2023-11-18T04:25:29.431Z,1032.5
2023-11-18T04:31:05.849Z,1032.5
2023-11-18T04:36:56.137Z,1032.4
2023-11-18T04:47:44.419Z,1032.4
2023-11-18T04:53:26.647Z,1032.3
2023-11-18T04:58:36.463Z,1032.3
2023-11-18T05:04:30.438Z,1032.4
2023-11-18T05:09:37.615Z,1032.4
2023-11-18T05:15:28.229Z,1032.5
2023-11-18T05:20:56.531Z,1032.5
2023-11-18T05:26:26.164Z,1032.3
2023-11-18T05:31:52.794Z,1032.2
2023-11-18T05:37:24.347Z,1032.2
2023-11-18T05:42:57.442Z,1032.2
2023-11-18T05:48:18.503Z,1032.3
2023-11-18T05:54:09.561Z,1032.1
2023-11-18T05:59:27.801Z,1032.2
2023-11-18T06:04:59.509Z,1032.3
2023-11-18T06:10:17.725Z,1032.3
2023-11-18T06:15:51.818Z,1032.5
2023-11-18T06:21:31.703Z,1032.4
2023-11-18T06:26:56.899Z,1032.3
2023-11-18T06:37:55.415Z,1032.4
2023-11-18T06:43:36.555Z,1032.3
2023-11-18T06:49:00.146Z,1032.3
2023-11-18T06:54:26.277Z,1032.3
2023-11-18T07:00:04.407Z,1032.3
2023-11-18T07:05:35.130Z,1032.4
2023-11-18T07:11:04.916Z,1032.4
2023-11-18T07:16:37.701Z,1032.4
2023-11-18T07:22:05.608Z,1032.5
2023-11-18T07:33:25.291Z,1032.5
2023-11-18T07:38:47.977Z,1032.5
2023-11-18T07:44:10.730Z,1032.4
2023-11-18T07:49:50.708Z,1032.5
2023-11-18T07:55:17.073Z,1032.5
2023-11-18T08:00:58.850Z,1032.5
2023-11-18T08:06:27.909Z,1032.4
2023-11-18T08:11:52.544Z,1032.4
2023-11-18T08:17:25.156Z,1032.4
2023-11-18T08:22:43.948Z,1032.3
2023-11-18T08:28:20.940Z,1032.2
2023-11-18T08:34:09.559Z,1032.3
2023-11-18T08:39:42.462Z,1032.1
2023-11-18T08:45:15.177Z,1032.1
2023-11-18T08:50:39.608Z,1032.1
2023-11-18T08:56:01.328Z,1031.9
2023-11-18T09:01:45.943Z,1032
2023-11-18T09:07:06.614Z,1031.9
2023-11-18T09:12:25.323Z,1031.8
2023-11-18T09:18:15.484Z,1031.6
2023-11-18T09:23:26.262Z,1031.9
2023-11-18T09:29:09.412Z,1031.8
2023-11-18T09:34:54.044Z,1032
2023-11-18T09:40:25.958Z,1032.1
2023-11-18T09:45:44.556Z,1032.1
2023-11-18T09:51:22.496Z,1031.9
2023-11-18T09:56:37.928Z,1031.8
2023-11-18T10:02:13.068Z,1032
2023-11-18T10:08:05.264Z,1031.9
2023-11-18T10:13:33.870Z,1031.8
2023-11-18T10:18:56.916Z,1031.8
2023-11-18T10:24:24.501Z,1031.8
2023-11-18T10:30:13.854Z,1031.5
2023-11-18T10:35:32.815Z,1031.4
2023-11-18T10:41:16.769Z,1031.4
2023-11-18T10:46:40.755Z,1031.5
2023-11-18T10:52:04.501Z,1031.5
2023-11-18T10:57:34.798Z,1031.5
2023-11-18T11:03:09.392Z,1031.5
2023-11-18T11:08:39.012Z,1031.6
2023-11-18T11:14:04.673Z,1031.5
2023-11-18T11:19:42.818Z,1031.5
2023-11-18T11:25:10.160Z,1031.6
2023-11-18T11:31:00.763Z,1031.4
2023-11-18T11:36:15.588Z,1031.4
2023-11-18T11:41:51.075Z,1031.6
2023-11-18T11:52:49.537Z,1031.4
2023-11-18T11:58:32.025Z,1031.3
2023-11-18T12:04:05.204Z,1031.1
2023-11-18T12:09:24.157Z,1031.1
2023-11-18T12:15:04.503Z,1031.1
2023-11-18T12:20:24.608Z,1031
2023-11-18T12:26:02.951Z,1030.9
2023-11-18T12:31:25.639Z,1030.8
2023-11-18T12:36:58.890Z,1030.7
2023-11-18T12:48:09.698Z,1030.7
2023-11-18T12:53:31.041Z,1030.7
2023-11-18T12:59:22.264Z,1030.7
2023-11-18T13:04:54.095Z,1030.6
2023-11-18T13:09:59.385Z,1030.6
2023-11-18T13:15:46.630Z,1030.4
2023-11-18T13:21:05.005Z,1030.3
2023-11-18T13:26:40.995Z,1030.1
2023-11-18T13:37:36.433Z,1029.8
2023-11-18T13:43:27.187Z,1029.8
2023-11-18T13:49:07.248Z,1029.8
2023-11-18T13:54:13.867Z,1029.8
2023-11-18T13:59:58.491Z,1029.8
2023-11-18T14:05:19.555Z,1029.7
2023-11-18T14:10:58.037Z,1029.5
2023-11-18T14:16:22.322Z,1029.3
2023-11-18T14:21:51.270Z,1029.1
2023-11-18T14:32:58.484Z,1029
2023-11-18T14:38:33.965Z,1029.1
2023-11-18T14:44:04.092Z,1028.9
2023-11-18T14:49:27.714Z,1028.8
2023-11-18T14:55:02.380Z,1028.7
2023-11-18T15:00:31.451Z,1029.1
2023-11-18T15:06:13.644Z,1028.9
2023-11-18T15:11:58.521Z,1029
2023-11-18T15:17:06.928Z,1029.1
2023-11-18T15:22:49.584Z,1029.1
2023-11-18T15:28:25.593Z,1029.1
2023-11-18T15:34:00.232Z,1029
2023-11-18T15:39:31.462Z,1029
2023-11-18T15:44:57.075Z,1029
2023-11-18T15:50:14.788Z,1029.1
2023-11-18T15:56:05.919Z,1029
2023-11-18T16:01:18.602Z,1028.9
2023-11-18T16:07:02.829Z,1029
2023-11-18T16:12:20.893Z,1029
2023-11-18T16:18:02.590Z,1028.9
2023-11-18T16:23:48.279Z,1028.8
2023-11-18T16:29:11.640Z,1028.8
2023-11-18T16:34:51.954Z,1028.9
2023-11-18T16:40:20.351Z,1028.8
2023-11-18T16:45:29.027Z,1028.8
2023-11-18T16:51:24.297Z,1028.8
2023-11-18T16:56:34.659Z,1028.7
2023-11-18T17:02:13.376Z,1028.9
2023-11-18T17:13:23.674Z,1028.9
2023-11-18T17:18:59.049Z,1028.9
2023-11-18T17:24:28.203Z,1028.9
2023-11-18T17:29:56.383Z,1029
2023-11-18T17:35:23.421Z,1028.9
2023-11-18T17:41:03.282Z,1028.8
2023-11-18T17:46:32.472Z,1028.9
2023-11-18T17:51:47.298Z,1029
2023-11-18T17:57:20.457Z,1029
2023-11-18T18:03:11.148Z,1029
2023-11-18T18:08:26.363Z,1028.9
2023-11-18T18:14:17.628Z,1029
2023-11-18T18:19:41.576Z,1029
2023-11-18T18:25:07.180Z,1029
2023-11-18T18:30:28.020Z,1029.1
2023-11-18T22:51:08.216Z,1027.4
2023-11-18T23:02:17.587Z,1027.2
2023-11-18T23:13:14.237Z,1027.1
2023-11-18T23:29:47.072Z,1026.8
2023-11-18T23:35:35.008Z,1026.8
2023-11-18T23:46:36.851Z,1026.7
2023-11-18T23:51:55.779Z,1026.7
